createdAt,value
2019-04-06T00:01:54.280Z,101238.72
2019-04-06T00:04:23.917Z,101240.05
2019-04-06T00:06:53.585Z,101243.56
2019-04-06T00:09:23.216Z,101239.92
2019-04-06T00:11:52.848Z,101240.06
2019-04-06T00:14:22.533Z,101233.78
2019-04-06T00:16:52.162Z,101242.35
2019-04-06T00:19:21.795Z,101242.12
2019-04-06T00:21:51.567Z,101238.48
2019-04-06T00:24:21.200Z,101238.23
2019-04-06T00:26:50.909Z,101243.89
2019-04-06T00:29:20.674Z,101240.16
2019-04-06T00:31:52.285Z,101245.34
2019-04-06T00:34:22.705Z,101248.94
2019-04-06T00:36:52.469Z,101248.67
2019-04-06T00:39:22.171Z,101256.30
2019-04-06T00:41:52.162Z,101255.91
2019-04-06T00:44:21.839Z,101263.98
2019-04-06T00:46:51.470Z,101259.02
2019-04-06T00:49:21.130Z,101261.30
2019-04-06T00:51:51.276Z,101255.52
2019-04-06T00:54:20.897Z,101256.47
2019-04-06T00:56:50.578Z,101258.62
2019-04-06T00:59:20.234Z,101258.00
2019-04-06T01:01:50.988Z,101256.02
2019-04-06T01:04:20.595Z,101254.44
2019-04-06T01:06:50.991Z,101257.08
2019-04-06T01:09:20.693Z,101256.36
2019-04-06T01:11:50.342Z,101261.14
2019-04-06T01:14:20.024Z,101257.84
2019-04-06T01:16:49.686Z,101255.91
2019-04-06T01:19:19.483Z,101263.66
2019-04-06T01:21:49.154Z,101267.77
2019-04-06T01:24:18.784Z,101270.11
2019-04-06T01:26:48.405Z,101269.12
2019-04-06T01:29:18.092Z,101265.59
2019-04-06T01:31:47.718Z,101265.39
2019-04-06T01:34:17.333Z,101267.22
2019-04-06T01:36:48.467Z,101261.73
2019-04-06T01:39:18.384Z,101259.68
2019-04-06T01:41:48.026Z,101262.70
2019-04-06T01:44:17.729Z,101266.19
2019-04-06T01:46:47.335Z,101265.08
2019-04-06T01:49:16.988Z,101263.45
2019-04-06T01:51:46.661Z,101269.91
2019-04-06T01:54:16.299Z,101267.85
2019-04-06T01:56:45.987Z,101274.32
2019-04-06T01:59:15.697Z,101272.33
2019-04-06T02:01:50.026Z,101278.80
2019-04-06T02:04:20.265Z,101280.17
2019-04-06T02:06:49.918Z,101281.16
2019-04-06T02:09:19.548Z,101278.02
2019-04-06T02:11:49.176Z,101287.41
2019-04-06T02:14:18.937Z,101286.62
2019-04-06T02:16:48.677Z,101285.86
2019-04-06T02:19:18.243Z,101285.97
2019-04-06T02:21:47.930Z,101284.30
2019-04-06T02:24:17.684Z,101286.55
2019-04-06T02:26:47.264Z,101280.72
2019-04-06T02:29:17.204Z,101282.89
2019-04-06T02:32:04.985Z,101288.48
2019-04-06T02:34:39.340Z,101288.63
2019-04-06T02:37:26.958Z,101281.19
2019-04-06T02:40:07.457Z,101286.41
2019-04-06T02:42:49.052Z,101284.81
2019-04-06T02:45:19.295Z,101286.99
2019-04-06T02:47:48.915Z,101283.69
2019-04-06T02:50:18.907Z,101281.19
2019-04-06T02:52:48.633Z,101283.36
2019-04-06T02:55:18.547Z,101288.88
2019-04-06T02:57:48.188Z,101292.28
2019-04-06T03:00:18.001Z,101288.98
2019-04-06T03:02:47.620Z,101288.18
2019-04-06T03:05:17.278Z,101286.19
2019-04-06T03:07:47.177Z,101289.62
2019-04-06T03:10:16.896Z,101288.50
2019-04-06T03:12:46.528Z,101292.84
2019-04-06T03:15:16.321Z,101301.75
2019-04-06T03:17:47.586Z,101302.69
2019-04-06T03:20:17.211Z,101300.76
2019-04-06T03:22:47.605Z,101306.27
2019-04-06T03:25:17.231Z,101299.96
2019-04-06T03:27:46.857Z,101308.00
2019-04-06T03:30:17.078Z,101305.47
2019-04-06T03:32:46.802Z,101304.63
2019-04-06T03:35:16.453Z,101305.09
2019-04-06T03:37:46.209Z,101303.90
2019-04-06T03:40:17.413Z,101304.47
2019-04-06T03:42:47.955Z,101293.09
2019-04-06T03:45:19.281Z,101302.00
2019-04-06T03:47:48.900Z,101306.30
2019-04-06T03:50:18.529Z,101300.00
2019-04-06T03:52:48.291Z,101298.39
2019-04-06T03:55:17.897Z,101298.46
2019-04-06T03:57:47.529Z,101301.87
2019-04-06T04:00:17.333Z,101302.34
2019-04-06T04:02:48.638Z,101306.20
2019-04-06T04:05:18.525Z,101301.77
2019-04-06T04:07:48.229Z,101302.69
2019-04-06T04:10:29.726Z,101301.05
2019-04-06T04:12:59.679Z,101304.09
2019-04-06T04:15:29.974Z,101301.59
2019-04-06T04:17:59.672Z,101301.59
2019-04-06T04:20:29.542Z,101299.15
2019-04-06T04:22:59.204Z,101304.72
2019-04-06T04:25:28.838Z,101302.62
2019-04-06T04:27:58.989Z,101300.58
2019-04-06T04:30:32.934Z,101310.31
2019-04-06T04:32:59.948Z,101312.55
2019-04-06T04:35:29.765Z,101310.50
2019-04-06T04:37:59.392Z,101314.37
2019-04-06T04:40:29.156Z,101309.80
2019-04-06T04:42:58.877Z,101312.86
2019-04-06T04:45:28.474Z,101324.69
2019-04-06T04:47:58.560Z,101324.29
2019-04-06T04:50:28.233Z,101321.73
2019-04-06T04:52:57.873Z,101318.36
2019-04-06T04:55:27.511Z,101323.83
2019-04-06T04:57:57.172Z,101318.70
2019-04-06T05:00:27.075Z,101317.00
2019-04-06T05:02:56.865Z,101324.56
2019-04-06T05:05:26.483Z,101325.41
2019-04-06T05:07:57.086Z,101319.50
2019-04-06T05:10:26.808Z,101330.41
2019-04-06T05:12:56.464Z,101331.24
2019-04-06T05:16:06.329Z,101334.64
2019-04-06T05:18:35.990Z,101337.98
2019-04-06T05:21:05.617Z,101333.25
2019-04-06T05:23:35.411Z,101336.13
2019-04-06T05:26:06.398Z,101337.33
2019-04-06T05:28:39.285Z,101339.70
2019-04-06T05:31:08.954Z,101342.05
2019-04-06T05:33:39.173Z,101341.05
2019-04-06T05:36:08.985Z,101345.20
2019-04-06T05:38:38.704Z,101348.06
2019-04-06T05:41:08.658Z,101353.51
2019-04-06T05:43:38.292Z,101350.91
2019-04-06T05:46:08.092Z,101351.64
2019-04-06T05:48:38.015Z,101351.61
2019-04-06T05:51:08.502Z,101351.11
2019-04-06T05:53:38.706Z,101346.84
2019-04-06T05:56:08.376Z,101352.66
2019-04-06T05:58:40.632Z,101353.33
2019-04-06T06:01:11.179Z,101351.13
2019-04-06T06:03:41.611Z,101350.22
2019-04-06T06:06:12.860Z,101354.66
2019-04-06T06:08:42.637Z,101358.70
2019-04-06T06:11:12.329Z,101354.36
2019-04-06T06:13:42.029Z,101357.59
2019-04-06T06:16:12.347Z,101353.62
2019-04-06T06:18:42.086Z,101348.07
2019-04-06T06:21:11.724Z,101357.25
2019-04-06T06:23:41.357Z,101347.66
2019-04-06T06:26:11.262Z,101348.28
2019-04-06T06:28:40.894Z,101353.98
2019-04-06T06:31:10.748Z,101354.81
2019-04-06T06:33:40.366Z,101352.60
2019-04-06T06:36:13.125Z,101351.70
2019-04-06T06:38:43.034Z,101344.73
2019-04-06T06:41:12.767Z,101350.50
2019-04-06T06:43:45.059Z,101342.77
2019-04-06T06:46:13.985Z,101341.80
2019-04-06T06:48:45.872Z,101338.31
2019-04-06T06:51:15.176Z,101344.11
2019-04-06T06:53:44.818Z,101344.00
2019-04-06T06:56:14.487Z,101346.83
2019-04-06T06:58:44.118Z,101335.36
2019-04-06T07:01:13.841Z,101335.17
2019-04-06T07:03:43.639Z,101339.70
2019-04-06T07:06:13.277Z,101341.30
2019-04-06T07:08:42.947Z,101336.02
2019-04-06T07:11:12.691Z,101336.31
2019-04-06T07:13:42.324Z,101342.06
2019-04-06T07:16:12.031Z,101337.19
2019-04-06T07:18:41.823Z,101333.22
2019-04-06T07:21:12.045Z,101334.81
2019-04-06T07:23:41.926Z,101336.44
2019-04-06T07:26:11.597Z,101342.16
2019-04-06T07:28:41.250Z,101335.69
2019-04-06T07:31:10.884Z,101339.73
2019-04-06T07:33:40.540Z,101333.66
2019-04-06T07:36:10.233Z,101336.00
2019-04-06T07:38:39.955Z,101339.22
2019-04-06T07:41:09.629Z,101334.33
2019-04-06T07:43:39.261Z,101326.92
2019-04-06T07:46:08.903Z,101330.55
2019-04-06T07:48:38.612Z,101334.19
2019-04-06T07:51:08.283Z,101328.94
2019-04-06T07:53:37.915Z,101331.72
2019-04-06T07:56:07.596Z,101330.66
2019-04-06T07:58:48.011Z,101329.89
2019-04-06T08:01:10.443Z,101330.55
2019-04-06T08:03:40.199Z,101326.56
2019-04-06T08:06:09.867Z,101325.91
2019-04-06T08:08:39.926Z,101322.36
2019-04-06T08:11:09.545Z,101325.56
2019-04-06T08:13:39.202Z,101324.47
2019-04-06T08:16:08.839Z,101320.91
2019-04-06T08:18:40.308Z,101322.89
2019-04-06T08:21:11.585Z,101323.95
2019-04-06T08:23:41.218Z,101321.66
2019-04-06T08:26:10.893Z,101320.95
2019-04-06T08:28:40.573Z,101320.81
2019-04-06T08:31:10.199Z,101320.24
2019-04-06T08:33:39.899Z,101323.05
2019-04-06T08:36:09.542Z,101321.48
2019-04-06T08:38:39.372Z,101312.30
2019-04-06T08:41:09.063Z,101318.48
2019-04-06T08:43:38.689Z,101317.45
2019-04-06T08:46:08.988Z,101313.94
2019-04-06T08:48:38.655Z,101313.36
2019-04-06T08:51:08.285Z,101309.84
2019-04-06T08:53:37.932Z,101296.21
2019-04-06T08:56:07.628Z,101299.14
2019-04-06T08:58:37.809Z,101295.63
2019-04-06T09:01:07.439Z,101296.27
2019-04-06T09:03:37.381Z,101297.31
2019-04-06T09:06:07.033Z,101294.18
2019-04-06T09:08:36.739Z,101290.21
2019-04-06T09:11:06.556Z,101293.39
2019-04-06T09:13:36.192Z,101301.89
2019-04-06T09:16:05.841Z,101295.56
2019-04-06T09:18:35.530Z,101297.28
2019-04-06T09:21:08.450Z,101293.79
2019-04-06T09:23:38.071Z,101301.00
2019-04-06T09:26:07.910Z,101293.25
2019-04-06T09:28:37.606Z,101293.55
2019-04-06T09:31:07.506Z,101296.94
2019-04-06T09:33:37.247Z,101292.66
2019-04-06T09:36:06.894Z,101293.11
2019-04-06T09:38:36.594Z,101288.39
2019-04-06T09:41:06.335Z,101291.33
2019-04-06T09:43:36.043Z,101290.27
2019-04-06T09:46:23.944Z,101292.16
2019-04-06T09:48:57.836Z,101289.07
2019-04-06T09:51:29.212Z,101281.80
2019-04-06T09:54:09.324Z,101284.98
2019-04-06T09:56:43.274Z,101286.40
2019-04-06T09:59:18.003Z,101281.83
2019-04-06T10:01:52.229Z,101280.72
2019-04-06T10:04:23.546Z,101282.29
2019-04-06T10:07:01.007Z,101284.69
2019-04-06T10:09:35.323Z,101284.16
2019-04-06T10:12:10.069Z,101288.59
2019-04-06T10:14:58.228Z,101277.37
2019-04-06T10:21:24.251Z,101272.40
2019-04-06T10:24:07.590Z,101271.41
2019-04-06T10:26:39.242Z,101262.70
2019-04-06T10:29:15.271Z,101261.20
2019-04-06T10:32:01.567Z,101261.78
2019-04-06T10:34:38.523Z,101264.56
2019-04-06T10:37:15.555Z,101268.69
2019-04-06T10:39:55.601Z,101259.48
2019-04-06T10:42:29.672Z,101259.63
2019-04-06T10:45:06.980Z,101261.09
2019-04-06T10:47:41.003Z,101264.25
2019-04-06T10:50:12.851Z,101264.31
2019-04-06T10:53:00.391Z,101261.80
2019-04-06T10:55:31.706Z,101264.03
2019-04-06T10:58:02.954Z,101261.52
2019-04-06T11:00:50.762Z,101262.84
2019-04-06T11:03:31.128Z,101255.28
2019-04-06T11:06:06.405Z,101252.77
2019-04-06T11:08:54.094Z,101249.07
2019-04-06T11:11:27.823Z,101254.02
2019-04-06T11:13:59.108Z,101253.33
2019-04-06T11:16:36.199Z,101253.02
2019-04-06T11:19:13.387Z,101245.37
2019-04-06T11:21:53.813Z,101246.95
2019-04-06T11:24:31.537Z,101248.16
2019-04-06T11:27:03.158Z,101239.84
2019-04-06T11:29:50.585Z,101237.22
2019-04-06T11:32:37.281Z,101245.82
2019-04-06T11:35:15.061Z,101237.44
2019-04-06T11:37:52.048Z,101238.25
2019-04-06T11:40:39.937Z,101247.88
2019-04-06T11:43:14.238Z,101235.28
2019-04-06T11:45:54.661Z,101232.81
2019-04-06T11:48:28.875Z,101234.86
2019-04-06T11:51:12.470Z,101233.02
2019-04-06T11:53:46.687Z,101230.03
2019-04-06T11:56:17.998Z,101225.16
2019-04-06T11:58:58.560Z,101225.98
2019-04-06T12:01:32.556Z,101224.23
2019-04-06T12:04:18.131Z,101222.98
2019-04-06T12:06:52.726Z,101221.18
2019-04-06T12:09:32.959Z,101215.62
2019-04-06T12:12:16.541Z,101219.83
2019-04-06T12:14:50.724Z,101221.29
2019-04-06T12:17:40.146Z,101219.44
2019-04-06T12:20:23.919Z,101211.94
2019-04-06T12:23:13.346Z,101209.66
2019-04-06T12:25:56.424Z,101212.71
2019-04-06T12:28:39.927Z,101212.98
2019-04-06T12:31:17.018Z,101219.03
2019-04-06T12:33:48.295Z,101212.21
2019-04-06T12:36:19.642Z,101212.83
2019-04-06T12:38:54.031Z,101208.86
2019-04-06T12:41:28.156Z,101208.04
2019-04-06T12:44:14.511Z,101210.83
2019-04-06T12:46:46.560Z,101208.05
2019-04-06T12:49:34.067Z,101207.90
2019-04-06T12:52:14.815Z,101207.90
2019-04-06T12:54:55.699Z,101211.52
2019-04-06T12:57:42.155Z,101207.03
2019-04-06T13:00:29.753Z,101212.80
2019-04-06T13:03:10.245Z,101212.91
2019-04-06T13:05:47.178Z,101204.77
2019-04-06T13:08:24.451Z,101198.01
2019-04-06T13:11:12.299Z,101199.42
2019-04-06T13:13:56.023Z,101191.69
2019-04-06T13:16:27.265Z,101191.26
2019-04-06T13:19:04.438Z,101194.34
2019-04-06T13:21:52.127Z,101189.77
2019-04-06T13:24:29.105Z,101193.20
2019-04-06T13:27:03.415Z,101197.68
2019-04-06T13:29:43.233Z,101188.44
2019-04-06T13:32:30.919Z,101187.38
2019-04-06T13:35:18.565Z,101187.89
2019-04-06T13:37:52.840Z,101177.13
2019-04-06T13:40:41.667Z,101174.88
2019-04-06T13:43:13.160Z,101181.21
2019-04-06T13:45:59.732Z,101179.30
2019-04-06T13:48:45.986Z,101175.94
2019-04-06T13:51:19.834Z,101178.77
2019-04-06T13:54:03.485Z,101171.03
2019-04-06T13:56:46.606Z,101161.52
2019-04-06T13:59:34.262Z,101168.12
2019-04-06T14:02:14.282Z,101163.64
2019-04-06T14:05:01.511Z,101166.55
2019-04-06T14:07:48.942Z,101161.72
2019-04-06T14:10:20.240Z,101154.20
2019-04-06T14:13:02.497Z,101152.33
2019-04-06T14:15:45.841Z,101152.70
2019-04-06T14:18:23.271Z,101152.05
2019-04-06T14:21:10.555Z,101152.42
2019-04-06T14:23:44.806Z,101143.13
2019-04-06T14:26:32.131Z,101139.40
2019-04-06T14:29:03.744Z,101141.90
2019-04-06T14:31:50.914Z,101138.51
2019-04-06T14:34:40.250Z,101137.33
2019-04-06T14:37:20.463Z,101136.13
2019-04-06T14:39:51.748Z,101136.36
2019-04-06T14:42:41.437Z,101137.28
2019-04-06T14:45:21.795Z,101141.50
2019-04-06T14:47:59.077Z,101135.69
2019-04-06T14:50:39.626Z,101134.20
2019-04-06T14:53:11.469Z,101126.58
2019-04-06T14:55:45.799Z,101133.19
2019-04-06T14:58:17.112Z,101129.33
2019-04-06T15:01:05.103Z,101136.38
2019-04-06T15:03:36.713Z,101135.70
2019-04-06T15:06:19.591Z,101128.54
2019-04-06T15:08:52.003Z,101128.54
2019-04-06T15:11:23.366Z,101128.89
2019-04-06T15:13:57.803Z,101132.23
2019-04-06T15:16:29.079Z,101129.55
2019-04-06T15:19:09.402Z,101129.55
2019-04-06T15:21:43.770Z,101129.55
2019-04-06T15:24:21.238Z,101117.44
2019-04-06T15:26:58.805Z,101117.44
2019-04-06T15:29:33.205Z,101123.45
2019-04-06T15:32:13.648Z,101124.69
2019-04-06T15:34:45.047Z,101116.27
2019-04-06T15:37:28.131Z,101121.48
2019-04-06T15:40:15.233Z,101115.36
2019-04-06T15:42:46.513Z,101117.32
2019-04-06T15:45:33.148Z,101113.83
2019-04-06T15:48:20.544Z,101115.38
2019-04-06T15:51:08.845Z,101111.89
2019-04-06T15:53:42.938Z,101113.45
2019-04-06T15:56:14.208Z,101102.38
2019-04-06T15:58:48.232Z,101101.27
2019-04-06T16:01:22.736Z,101103.39
2019-04-06T16:03:57.103Z,101107.13
2019-04-06T16:06:28.494Z,101107.24
2019-04-06T16:09:16.643Z,101103.72
2019-04-06T16:12:05.149Z,101107.75
2019-04-06T16:14:39.436Z,101105.20
2019-04-06T16:17:10.709Z,101098.28
2019-04-06T16:19:41.977Z,101110.22
2019-04-06T16:22:13.318Z,101099.59
2019-04-06T16:24:44.695Z,101110.81
2019-04-06T16:27:16.027Z,101108.66
2019-04-06T16:29:57.503Z,101109.11
2019-04-06T16:32:37.779Z,101106.95
2019-04-06T16:35:27.333Z,101106.07
2019-04-06T16:38:07.834Z,101106.23
2019-04-06T16:40:55.607Z,101101.11
2019-04-06T16:43:32.119Z,101110.41
2019-04-06T16:46:19.041Z,101111.61
2019-04-06T16:48:59.593Z,101104.91
2019-04-06T16:51:30.853Z,101110.21
2019-04-06T16:54:18.147Z,101110.27
2019-04-06T16:56:52.166Z,101107.15
2019-04-06T16:59:25.900Z,101102.49
2019-04-06T17:02:06.070Z,101108.92
2019-04-06T17:04:40.638Z,101105.34
2019-04-06T17:07:17.764Z,101101.13
2019-04-06T17:10:00.673Z,101102.83
2019-04-06T17:12:31.983Z,101106.72
2019-04-06T17:15:20.024Z,101108.59
2019-04-06T17:17:51.358Z,101109.28
2019-04-06T17:20:28.693Z,101106.16
2019-04-06T17:23:02.435Z,101102.51
2019-04-06T17:25:53.049Z,101108.41
2019-04-06T17:28:29.882Z,101115.88
2019-04-06T17:31:13.329Z,101099.52
2019-04-06T17:33:44.854Z,101106.39
2019-04-06T17:36:34.198Z,101103.39
2019-04-06T17:39:23.372Z,101109.48
2019-04-06T17:41:57.552Z,101110.82
2019-04-06T17:44:37.833Z,101105.90
2019-04-06T17:47:25.379Z,101115.14
2019-04-06T17:50:02.480Z,101112.70
2019-04-06T17:52:37.049Z,101108.86
2019-04-06T17:55:12.440Z,101111.69
2019-04-06T17:58:01.698Z,101111.31
2019-04-06T18:00:50.329Z,101111.61
2019-04-06T18:03:36.901Z,101116.91
2019-04-06T18:06:24.715Z,101121.28
2019-04-06T18:08:55.990Z,101123.28
2019-04-06T18:11:27.269Z,101124.79
2019-04-06T18:13:57.572Z,101120.10
2019-04-06T18:16:30.052Z,101118.37
2019-04-06T18:19:00.263Z,101117.55
2019-04-06T18:21:30.230Z,101117.66
2019-04-06T18:24:02.048Z,101118.30
2019-04-06T18:26:31.780Z,101113.38
2019-04-06T18:29:01.767Z,101120.57
2019-04-06T18:31:33.840Z,101123.81
2019-04-06T18:34:05.237Z,101117.59
2019-04-06T18:36:48.485Z,101115.77
2019-04-06T18:39:22.963Z,101119.63
2019-04-06T18:41:53.563Z,101113.92
2019-04-06T18:44:23.426Z,101112.92
2019-04-06T18:46:56.613Z,101116.14
2019-04-06T18:49:28.324Z,101117.16
2019-04-06T18:51:58.343Z,101124.28
2019-04-06T18:54:28.169Z,101121.45
2019-04-06T18:56:58.079Z,101120.30
2019-04-06T18:59:27.698Z,101118.14
2019-04-06T19:01:58.864Z,101119.55
2019-04-06T19:04:29.368Z,101119.93
2019-04-06T19:07:03.810Z,101116.97
2019-04-06T19:09:35.177Z,101119.02
2019-04-06T19:12:05.336Z,101121.34
2019-04-06T19:14:35.104Z,101117.96
2019-04-06T19:17:04.818Z,101119.61
2019-04-06T19:19:34.513Z,101121.14
2019-04-06T19:22:04.684Z,101109.00
2019-04-06T19:24:34.417Z,101108.16
2019-04-06T19:27:04.451Z,101111.85
2019-04-06T19:29:34.121Z,101104.78
2019-04-06T19:32:06.976Z,101109.61
2019-04-06T19:34:37.304Z,101103.16
2019-04-06T19:37:12.431Z,101095.48
2019-04-06T19:39:42.273Z,101096.39
2019-04-06T19:42:12.082Z,101100.97
2019-04-06T19:44:42.522Z,101098.17
2019-04-06T19:47:12.123Z,101096.53
2019-04-06T19:49:42.575Z,101096.84
2019-04-06T19:52:12.405Z,101095.26
2019-04-06T19:54:42.366Z,101095.70
2019-04-06T19:57:17.440Z,101093.53
2019-04-06T19:59:48.787Z,101092.18
2019-04-06T20:02:22.044Z,101089.86
2019-04-06T20:04:51.890Z,101092.29
2019-04-06T20:07:21.995Z,101087.61
2019-04-06T20:09:52.138Z,101087.02
2019-04-06T20:12:21.923Z,101085.53
2019-04-06T20:14:51.708Z,101082.36
2019-04-06T20:17:22.439Z,101086.79
2019-04-06T20:19:52.203Z,101086.76
2019-04-06T20:22:22.948Z,101078.48
2019-04-06T20:24:53.161Z,101076.58
2019-04-06T20:27:23.264Z,101073.39
2019-04-06T20:29:53.515Z,101072.22
2019-04-06T20:32:23.518Z,101072.91
2019-04-06T20:34:53.628Z,101068.22
2019-04-06T20:37:23.470Z,101059.88
2019-04-06T20:39:54.158Z,101060.76
2019-04-06T20:42:23.957Z,101060.72
2019-04-06T20:44:53.875Z,101060.97
2019-04-06T20:47:26.718Z,101059.16
2019-04-06T20:49:58.183Z,101056.12
2019-04-06T20:52:28.162Z,101052.89
2019-04-06T20:54:58.131Z,101053.86
2019-04-06T20:57:28.388Z,101050.03
2019-04-06T20:59:58.093Z,101052.36
2019-04-06T21:02:27.806Z,101045.94
2019-04-06T21:04:57.545Z,101041.95
2019-04-06T21:07:27.301Z,101043.11
2019-04-06T21:09:57.165Z,101036.61
2019-04-06T21:12:27.504Z,101038.33
2019-04-06T21:14:57.229Z,101038.26
2019-04-06T21:17:30.171Z,101037.24
2019-04-06T21:20:00.074Z,101031.53
2019-04-06T21:22:29.719Z,101028.01
2019-04-06T21:24:59.675Z,101027.11
2019-04-06T21:27:29.329Z,101028.73
2019-04-06T21:29:59.583Z,101032.05
2019-04-06T21:32:29.339Z,101033.94
2019-04-06T21:34:59.225Z,101030.45
2019-04-06T21:37:29.929Z,101028.66
2019-04-06T21:39:59.907Z,101026.55
2019-04-06T21:42:30.267Z,101024.45
2019-04-06T21:44:59.992Z,101024.59
2019-04-06T21:47:29.800Z,101023.02
2019-04-06T21:50:00.233Z,101016.36
2019-04-06T21:52:30.341Z,101014.14
2019-04-06T21:55:00.144Z,101014.53
2019-04-06T21:57:29.837Z,101010.27
2019-04-06T21:59:59.591Z,101012.70
2019-04-06T22:02:30.806Z,101002.58
2019-04-06T22:05:01.160Z,101002.63
2019-04-06T22:07:33.736Z,101001.50
2019-04-06T22:10:07.830Z,101003.69
2019-04-06T22:12:37.803Z,101006.94
2019-04-06T22:15:07.657Z,101000.33
2019-04-06T22:17:37.400Z,100999.87
2019-04-06T22:20:07.444Z,100995.27
2019-04-06T22:22:37.053Z,100996.83
2019-04-06T22:25:07.479Z,100994.16
2019-04-06T22:27:37.205Z,100995.34
2019-04-06T22:30:09.703Z,100993.06
2019-04-06T22:32:39.528Z,100992.23
2019-04-06T22:35:12.506Z,100987.10
2019-04-06T22:37:48.685Z,100983.50
2019-04-06T22:40:18.583Z,100983.11
2019-04-06T22:42:48.199Z,100985.75
2019-04-06T22:45:21.049Z,100980.31
2019-04-06T22:47:50.859Z,100983.34
2019-04-06T22:50:20.933Z,100982.16
2019-04-06T22:52:50.612Z,100979.27
2019-04-06T22:55:20.257Z,100978.21
2019-04-06T22:57:51.980Z,100973.44
2019-04-06T23:00:32.632Z,100977.50
2019-04-06T23:03:03.924Z,100973.61
2019-04-06T23:05:35.750Z,100971.16
2019-04-06T23:08:05.622Z,100966.25
2019-04-06T23:10:35.253Z,100970.75
2019-04-06T23:13:05.593Z,100963.74
2019-04-06T23:15:35.476Z,100962.43
2019-04-06T23:18:05.204Z,100960.28
2019-04-06T23:20:35.257Z,100960.77
2019-04-06T23:23:08.498Z,100958.67
2019-04-06T23:25:38.464Z,100955.13
2019-04-06T23:28:08.108Z,100959.72
2019-04-06T23:30:38.770Z,100958.50
2019-04-06T23:33:10.286Z,100956.78
2019-04-06T23:35:41.271Z,100955.00
2019-04-06T23:38:11.236Z,100956.78
2019-04-06T23:40:40.953Z,100956.48
2019-04-06T23:43:10.608Z,100955.25
2019-04-06T23:45:40.389Z,100951.38
2019-04-06T23:48:10.831Z,100948.00
2019-04-06T23:50:40.642Z,100953.29
2019-04-06T23:53:10.283Z,100947.98
2019-04-06T23:55:39.924Z,100953.51
2019-04-06T23:58:09.658Z,100945.94
